sensor_id;sensor_type;location;lat;lon;timestamp;temperature;humidity
2855;DHT22;1435;49.472;10.940;2024-01-10T00:02:15;-0.70;75.30
2855;DHT22;1435;49.472;10.940;2024-01-10T00:07:17;-0.80;75.20
2855;DHT22;1435;49.472;10.940;2024-01-10T00:12:20;-0.90;76.40
2855;DHT22;1435;49.472;10.940;2024-01-10T00:17:22;-0.90;77.20
2855;DHT22;1435;49.472;10.940;2024-01-10T00:22:24;-1.00;77.70
2855;DHT22;1435;49.472;10.940;2024-01-10T00:27:27;-1.10;78.40
2855;DHT22;1435;49.472;10.940;2024-01-10T00:32:28;-1.20;78.80
2855;DHT22;1435;49.472;10.940;2024-01-10T00:37:30;-1.20;79.40
2855;DHT22;1435;49.472;10.940;2024-01-10T00:42:33;-1.30;80.20
2855;DHT22;1435;49.472;10.940;2024-01-10T00:47:34;-1.40;80.90
2855;DHT22;1435;49.472;10.940;2024-01-10T00:52:36;-1.40;81.60
2855;DHT22;1435;49.472;10.940;2024-01-10T00:57:39;-1.50;82.20
2855;DHT22;1435;49.472;10.940;2024-01-10T01:02:41;-1.60;82.10
2855;DHT22;1435;49.472;10.940;2024-01-10T01:07:42;-1.60;82.60
2855;DHT22;1435;49.472;10.940;2024-01-10T01:12:45;-1.60;84.10
2855;DHT22;1435;49.472;10.940;2024-01-10T01:17:47;-1.60;84.30
2855;DHT22;1435;49.472;10.940;2024-01-10T01:22:49;-1.70;84.50
2855;DHT22;1435;49.472;10.940;2024-01-10T01:27:52;-1.70;85.00
2855;DHT22;1435;49.472;10.940;2024-01-10T01:32:53;-1.80;85.30
2855;DHT22;1435;49.472;10.940;2024-01-10T01:37:55;-1.90;85.60
2855;DHT22;1435;49.472;10.940;2024-01-10T01:42:58;-1.90;85.50
2855;DHT22;1435;49.472;10.940;2024-01-10T01:48:00;-2.00;85.40
2855;DHT22;1435;49.472;10.940;2024-01-10T01:53:01;-2.00;86.70
2855;DHT22;1435;49.472;10.940;2024-01-10T01:58:05;-2.00;87.00
2855;DHT22;1435;49.472;10.940;2024-01-10T02:03:08;-2.10;87.30
2855;DHT22;1435;49.472;10.940;2024-01-10T02:08:10;-2.10;87.60
2855;DHT22;1435;49.472;10.940;2024-01-10T02:13:13;-2.10;88.20
2855;DHT22;1435;49.472;10.940;2024-01-10T02:18:15;-2.10;88.80
2855;DHT22;1435;49.472;10.940;2024-01-10T02:23:17;-2.20;89.30
2855;DHT22;1435;49.472;10.940;2024-01-10T02:28:21;-2.20;89.40
2855;DHT22;1435;49.472;10.940;2024-01-10T02:33:23;-2.10;90.20
2855;DHT22;1435;49.472;10.940;2024-01-10T02:38:25;-2.20;89.70
2855;DHT22;1435;49.472;10.940;2024-01-10T02:43:28;-2.20;90.20
2855;DHT22;1435;49.472;10.940;2024-01-10T02:48:30;-2.20;90.20
2855;DHT22;1435;49.472;10.940;2024-01-10T02:53:32;-2.20;90.20
2855;DHT22;1435;49.472;10.940;2024-01-10T02:58:35;-2.30;90.30
2855;DHT22;1435;49.472;10.940;2024-01-10T03:03:37;-2.30;90.40
2855;DHT22;1435;49.472;10.940;2024-01-10T03:08:38;-2.30;90.20
2855;DHT22;1435;49.472;10.940;2024-01-10T03:13:43;-2.30;90.30
2855;DHT22;1435;49.472;10.940;2024-01-10T03:18:47;-2.30;90.50
2855;DHT22;1435;49.472;10.940;2024-01-10T03:23:48;-2.30;90.70
2855;DHT22;1435;49.472;10.940;2024-01-10T03:28:52;-2.40;90.60
2855;DHT22;1435;49.472;10.940;2024-01-10T03:33:53;-2.40;90.60
2855;DHT22;1435;49.472;10.940;2024-01-10T03:38:55;-2.40;91.10
2855;DHT22;1435;49.472;10.940;2024-01-10T03:43:58;-2.50;90.90
2855;DHT22;1435;49.472;10.940;2024-01-10T03:49:00;-2.40;91.00
2855;DHT22;1435;49.472;10.940;2024-01-10T03:54:01;-2.50;91.20
2855;DHT22;1435;49.472;10.940;2024-01-10T03:59:05;-2.50;91.40
2855;DHT22;1435;49.472;10.940;2024-01-10T04:04:06;-2.50;91.40
2855;DHT22;1435;49.472;10.940;2024-01-10T04:09:08;-2.50;91.40
2855;DHT22;1435;49.472;10.940;2024-01-10T04:14:12;-2.50;91.40
2855;DHT22;1435;49.472;10.940;2024-01-10T04:19:13;-2.50;91.30
2855;DHT22;1435;49.472;10.940;2024-01-10T04:24:15;-2.50;91.20
2855;DHT22;1435;49.472;10.940;2024-01-10T04:29:18;-2.40;91.20
2855;DHT22;1435;49.472;10.940;2024-01-10T04:34:19;-2.30;91.20
2855;DHT22;1435;49.472;10.940;2024-01-10T04:39:23;-2.30;91.60
2855;DHT22;1435;49.472;10.940;2024-01-10T04:44:26;-2.30;91.10
2855;DHT22;1435;49.472;10.940;2024-01-10T04:49:27;-2.30;91.20
2855;DHT22;1435;49.472;10.940;2024-01-10T04:54:29;-2.20;91.00
2855;DHT22;1435;49.472;10.940;2024-01-10T04:59:32;-2.20;91.00
2855;DHT22;1435;49.472;10.940;2024-01-10T05:04:34;-2.10;90.90
2855;DHT22;1435;49.472;10.940;2024-01-10T05:09:36;-2.10;90.90
2855;DHT22;1435;49.472;10.940;2024-01-10T05:14:39;-2.10;90.80
2855;DHT22;1435;49.472;10.940;2024-01-10T05:19:41;-2.00;90.80
2855;DHT22;1435;49.472;10.940;2024-01-10T05:24:42;-2.00;90.60
2855;DHT22;1435;49.472;10.940;2024-01-10T05:29:46;-2.00;90.60
2855;DHT22;1435;49.472;10.940;2024-01-10T05:34:49;-1.90;90.50
2855;DHT22;1435;49.472;10.940;2024-01-10T05:39:50;-1.90;90.50
2855;DHT22;1435;49.472;10.940;2024-01-10T05:44:53;-1.90;90.40
2855;DHT22;1435;49.472;10.940;2024-01-10T05:49:55;-1.90;90.40
2855;DHT22;1435;49.472;10.940;2024-01-10T05:54:57;-1.90;90.30
2855;DHT22;1435;49.472;10.940;2024-01-10T06:00:00;-1.90;90.40
2855;DHT22;1435;49.472;10.940;2024-01-10T06:05:04;-1.90;90.20
2855;DHT22;1435;49.472;10.940;2024-01-10T06:10:07;-1.90;90.30
2855;DHT22;1435;49.472;10.940;2024-01-10T06:15:11;-1.80;90.10
2855;DHT22;1435;49.472;10.940;2024-01-10T06:20:13;-1.80;90.40
2855;DHT22;1435;49.472;10.940;2024-01-10T06:25:15;-1.80;90.30
2855;DHT22;1435;49.472;10.940;2024-01-10T06:30:18;-1.80;90.40
2855;DHT22;1435;49.472;10.940;2024-01-10T06:35:20;-1.80;90.40
2855;DHT22;1435;49.472;10.940;2024-01-10T06:40:21;-1.90;90.50
2855;DHT22;1435;49.472;10.940;2024-01-10T06:45:24;-1.80;90.50
2855;DHT22;1435;49.472;10.940;2024-01-10T06:50:26;-1.80;90.60
2855;DHT22;1435;49.472;10.940;2024-01-10T06:55:28;-1.70;90.70
2855;DHT22;1435;49.472;10.940;2024-01-10T07:00:31;-1.70;90.80
2855;DHT22;1435;49.472;10.940;2024-01-10T07:05:32;-1.70;90.80
2855;DHT22;1435;49.472;10.940;2024-01-10T07:15:13;-1.70;90.70
2855;DHT22;1435;49.472;10.940;2024-01-10T07:20:15;-1.70;91.20
2855;DHT22;1435;49.472;10.940;2024-01-10T07:25:17;-1.70;91.70
2855;DHT22;1435;49.472;10.940;2024-01-10T07:30:20;-1.80;91.90
2855;DHT22;1435;49.472;10.940;2024-01-10T07:35:21;-1.80;92.10
2855;DHT22;1435;49.472;10.940;2024-01-10T07:40:23;-1.90;92.30
2855;DHT22;1435;49.472;10.940;2024-01-10T07:45:26;-1.90;92.70
2855;DHT22;1435;49.472;10.940;2024-01-10T07:50:28;-1.90;92.80
2855;DHT22;1435;49.472;10.940;2024-01-10T07:55:29;-2.00;92.80
2855;DHT22;1435;49.472;10.940;2024-01-10T08:00:32;-2.00;92.80
2855;DHT22;1435;49.472;10.940;2024-01-10T08:05:34;-2.00;92.80
2855;DHT22;1435;49.472;10.940;2024-01-10T08:10:36;-2.10;93.10
2855;DHT22;1435;49.472;10.940;2024-01-10T08:15:39;-2.00;93.20
2855;DHT22;1435;49.472;10.940;2024-01-10T08:20:42;-2.10;93.30
2855;DHT22;1435;49.472;10.940;2024-01-10T08:25:44;-2.10;93.50
2855;DHT22;1435;49.472;10.940;2024-01-10T08:30:47;-2.10;93.80
2855;DHT22;1435;49.472;10.940;2024-01-10T08:35:49;-2.10;94.00
2855;DHT22;1435;49.472;10.940;2024-01-10T08:40:50;-2.00;94.10
2855;DHT22;1435;49.472;10.940;2024-01-10T08:45:54;-2.00;94.10
2855;DHT22;1435;49.472;10.940;2024-01-10T08:50:55;-1.90;94.10
2855;DHT22;1435;49.472;10.940;2024-01-10T08:55:57;-1.80;94.20
2855;DHT22;1435;49.472;10.940;2024-01-10T09:01:00;-1.80;94.10
2855;DHT22;1435;49.472;10.940;2024-01-10T09:06:02;-1.80;94.20
2855;DHT22;1435;49.472;10.940;2024-01-10T09:11:04;-1.70;94.10
2855;DHT22;1435;49.472;10.940;2024-01-10T09:16:07;-1.60;94.20
2855;DHT22;1435;49.472;10.940;2024-01-10T09:21:10;-1.60;94.20
2855;DHT22;1435;49.472;10.940;2024-01-10T09:26:12;-1.60;94.10
2855;DHT22;1435;49.472;10.940;2024-01-10T09:31:15;-1.60;94.30
2855;DHT22;1435;49.472;10.940;2024-01-10T09:36:17;-1.40;94.50
2855;DHT22;1435;49.472;10.940;2024-01-10T09:41:18;-1.40;94.60
2855;DHT22;1435;49.472;10.940;2024-01-10T09:46:21;-1.30;94.70
2855;DHT22;1435;49.472;10.940;2024-01-10T09:51:23;-1.30;94.70
2855;DHT22;1435;49.472;10.940;2024-01-10T09:56:25;-1.20;94.50
2855;DHT22;1435;49.472;10.940;2024-01-10T10:01:28;-1.20;94.60
2855;DHT22;1435;49.472;10.940;2024-01-10T10:06:29;-1.10;94.60
2855;DHT22;1435;49.472;10.940;2024-01-10T10:11:31;-1.20;94.40
2855;DHT22;1435;49.472;10.940;2024-01-10T10:16:34;-1.10;94.60
2855;DHT22;1435;49.472;10.940;2024-01-10T10:21:36;-1.00;94.70
2855;DHT22;1435;49.472;10.940;2024-01-10T10:26:38;-1.00;94.70
2855;DHT22;1435;49.472;10.940;2024-01-10T10:31:42;-0.90;94.70
2855;DHT22;1435;49.472;10.940;2024-01-10T10:36:48;-0.90;94.90
2855;DHT22;1435;49.472;10.940;2024-01-10T10:41:50;-0.80;94.60
2855;DHT22;1435;49.472;10.940;2024-01-10T10:46:56;-0.80;94.40
2855;DHT22;1435;49.472;10.940;2024-01-10T10:52:01;-0.80;94.70
2855;DHT22;1435;49.472;10.940;2024-01-10T10:57:04;-0.60;95.30
2855;DHT22;1435;49.472;10.940;2024-01-10T11:02:09;-0.50;95.30
2855;DHT22;1435;49.472;10.940;2024-01-10T11:07:11;-0.40;95.30
2855;DHT22;1435;49.472;10.940;2024-01-10T11:12:27;-0.30;95.30
2855;DHT22;1435;49.472;10.940;2024-01-10T11:17:57;-0.30;95.30
2855;DHT22;1435;49.472;10.940;2024-01-10T11:28:32;-0.20;95.20
2855;DHT22;1435;49.472;10.940;2024-01-10T11:33:36;-0.10;95.20
2855;DHT22;1435;49.472;10.940;2024-01-10T11:38:47;0.00;95.20
2855;DHT22;1435;49.472;10.940;2024-01-10T11:44:27;0.00;95.20
2855;DHT22;1435;49.472;10.940;2024-01-10T11:49:30;0.10;95.30
2855;DHT22;1435;49.472;10.940;2024-01-10T11:54:36;0.20;95.10
2855;DHT22;1435;49.472;10.940;2024-01-10T11:59:42;0.10;95.40
2855;DHT22;1435;49.472;10.940;2024-01-10T12:04:46;0.30;95.70
2855;DHT22;1435;49.472;10.940;2024-01-10T12:09:48;0.40;95.90
2855;DHT22;1435;49.472;10.940;2024-01-10T12:14:50;0.40;95.70
2855;DHT22;1435;49.472;10.940;2024-01-10T12:19:54;0.40;95.80
2855;DHT22;1435;49.472;10.940;2024-01-10T12:24:55;0.50;96.10
2855;DHT22;1435;49.472;10.940;2024-01-10T12:30:00;0.60;96.20
2855;DHT22;1435;49.472;10.940;2024-01-10T12:35:05;0.70;96.10
2855;DHT22;1435;49.472;10.940;2024-01-10T12:40:09;0.80;96.00
2855;DHT22;1435;49.472;10.940;2024-01-10T12:45:20;0.90;96.10
2855;DHT22;1435;49.472;10.940;2024-01-10T12:50:24;0.90;96.30
2855;DHT22;1435;49.472;10.940;2024-01-10T12:55:26;1.10;96.30
2855;DHT22;1435;49.472;10.940;2024-01-10T13:00:28;1.20;96.60
2855;DHT22;1435;49.472;10.940;2024-01-10T13:05:31;1.30;96.70
2855;DHT22;1435;49.472;10.940;2024-01-10T13:10:33;1.40;96.30
2855;DHT22;1435;49.472;10.940;2024-01-10T13:15:35;1.40;95.80
2855;DHT22;1435;49.472;10.940;2024-01-10T13:20:38;1.50;96.30
2855;DHT22;1435;49.472;10.940;2024-01-10T13:25:40;1.60;96.40
2855;DHT22;1435;49.472;10.940;2024-01-10T13:30:42;1.60;96.60
2855;DHT22;1435;49.472;10.940;2024-01-10T13:35:45;1.80;96.40
2855;DHT22;1435;49.472;10.940;2024-01-10T13:40:46;1.80;96.50
2855;DHT22;1435;49.472;10.940;2024-01-10T13:45:48;1.90;96.10
2855;DHT22;1435;49.472;10.940;2024-01-10T13:50:51;2.00;96.40
2855;DHT22;1435;49.472;10.940;2024-01-10T13:55:53;2.10;95.80
2855;DHT22;1435;49.472;10.940;2024-01-10T14:00:54;2.30;96.10
2855;DHT22;1435;49.472;10.940;2024-01-10T14:05:57;2.50;96.40
2855;DHT22;1435;49.472;10.940;2024-01-10T14:10:59;2.60;96.20
2855;DHT22;1435;49.472;10.940;2024-01-10T14:16:01;2.90;95.90
2855;DHT22;1435;49.472;10.940;2024-01-10T14:21:04;3.40;95.80
2855;DHT22;1435;49.472;10.940;2024-01-10T14:26:06;4.20;94.80
2855;DHT22;1435;49.472;10.940;2024-01-10T14:31:08;4.90;93.40
2855;DHT22;1435;49.472;10.940;2024-01-10T14:36:11;5.40;92.10
2855;DHT22;1435;49.472;10.940;2024-01-10T14:41:13;5.60;91.70
2855;DHT22;1435;49.472;10.940;2024-01-10T14:46:15;5.50;91.40
2855;DHT22;1435;49.472;10.940;2024-01-10T14:51:18;5.20;91.80
2855;DHT22;1435;49.472;10.940;2024-01-10T14:56:19;4.80;92.20
2855;DHT22;1435;49.472;10.940;2024-01-10T15:01:21;4.40;92.80
2855;DHT22;1435;49.472;10.940;2024-01-10T15:06:24;4.00;93.20
2855;DHT22;1435;49.472;10.940;2024-01-10T15:11:26;3.70;94.10
2855;DHT22;1435;49.472;10.940;2024-01-10T15:16:27;3.40;94.20
2855;DHT22;1435;49.472;10.940;2024-01-10T15:21:30;3.20;94.20
2855;DHT22;1435;49.472;10.940;2024-01-10T15:26:32;3.00;94.40
2855;DHT22;1435;49.472;10.940;2024-01-10T15:31:34;2.80;95.50
2855;DHT22;1435;49.472;10.940;2024-01-10T15:36:41;2.70;95.80
2855;DHT22;1435;49.472;10.940;2024-01-10T15:41:43;2.60;95.40
2855;DHT22;1435;49.472;10.940;2024-01-10T15:46:44;2.40;95.60
2855;DHT22;1435;49.472;10.940;2024-01-10T15:51:47;2.30;96.10
2855;DHT22;1435;49.472;10.940;2024-01-10T15:56:49;2.10;96.20
2855;DHT22;1435;49.472;10.940;2024-01-10T16:01:51;2.00;96.20
2855;DHT22;1435;49.472;10.940;2024-01-10T16:06:56;1.90;96.40
2855;DHT22;1435;49.472;10.940;2024-01-10T16:11:57;1.80;96.60
2855;DHT22;1435;49.472;10.940;2024-01-10T16:16:59;1.70;96.90
2855;DHT22;1435;49.472;10.940;2024-01-10T16:22:02;1.60;97.20
2855;DHT22;1435;49.472;10.940;2024-01-10T16:27:04;1.50;97.10
2855;DHT22;1435;49.472;10.940;2024-01-10T16:32:06;1.40;97.10
2855;DHT22;1435;49.472;10.940;2024-01-10T16:37:09;1.40;97.60
2855;DHT22;1435;49.472;10.940;2024-01-10T16:42:11;1.30;97.40
2855;DHT22;1435;49.472;10.940;2024-01-10T16:47:14;1.20;97.30
2855;DHT22;1435;49.472;10.940;2024-01-10T16:52:17;1.00;97.60
2855;DHT22;1435;49.472;10.940;2024-01-10T16:57:21;0.90;97.80
2855;DHT22;1435;49.472;10.940;2024-01-10T17:02:23;0.90;98.10
2855;DHT22;1435;49.472;10.940;2024-01-10T17:07:26;0.80;98.20
2855;DHT22;1435;49.472;10.940;2024-01-10T17:12:27;0.70;98.70
2855;DHT22;1435;49.472;10.940;2024-01-10T17:17:29;0.60;98.60
2855;DHT22;1435;49.472;10.940;2024-01-10T17:22:32;0.60;99.00
2855;DHT22;1435;49.472;10.940;2024-01-10T17:27:36;0.50;99.00
2855;DHT22;1435;49.472;10.940;2024-01-10T17:32:37;0.40;99.00
2855;DHT22;1435;49.472;10.940;2024-01-10T17:37:41;0.40;99.20
2855;DHT22;1435;49.472;10.940;2024-01-10T17:42:42;0.30;99.50
2855;DHT22;1435;49.472;10.940;2024-01-10T17:47:44;0.30;99.70
2855;DHT22;1435;49.472;10.940;2024-01-10T17:52:47;0.30;99.60
2855;DHT22;1435;49.472;10.940;2024-01-10T17:57:49;0.20;99.70
2855;DHT22;1435;49.472;10.940;2024-01-10T18:02:50;0.20;99.90
2855;DHT22;1435;49.472;10.940;2024-01-10T18:07:53;0.20;99.90
2855;DHT22;1435;49.472;10.940;2024-01-10T18:12:55;0.10;99.90
2855;DHT22;1435;49.472;10.940;2024-01-10T18:17:58;0.10;99.90
2855;DHT22;1435;49.472;10.940;2024-01-10T18:23:00;0.10;99.90
2855;DHT22;1435;49.472;10.940;2024-01-10T18:28:02;0.10;99.90
2855;DHT22;1435;49.472;10.940;2024-01-10T18:33:04;0.00;99.90
2855;DHT22;1435;49.472;10.940;2024-01-10T18:38:08;-0.10;99.90
2855;DHT22;1435;49.472;10.940;2024-01-10T18:43:09;-0.10;99.90
2855;DHT22;1435;49.472;10.940;2024-01-10T18:48:11;-0.10;99.90
2855;DHT22;1435;49.472;10.940;2024-01-10T18:53:14;-0.20;99.90
2855;DHT22;1435;49.472;10.940;2024-01-10T18:58:16;-0.30;99.90
2855;DHT22;1435;49.472;10.940;2024-01-10T19:03:18;-0.30;99.90
2855;DHT22;1435;49.472;10.940;2024-01-10T19:08:21;-0.40;99.90
2855;DHT22;1435;49.472;10.940;2024-01-10T19:13:22;-0.30;99.90
2855;DHT22;1435;49.472;10.940;2024-01-10T19:18:24;-0.30;99.90
2855;DHT22;1435;49.472;10.940;2024-01-10T19:23:27;-0.40;99.90
2855;DHT22;1435;49.472;10.940;2024-01-10T19:28:29;-0.50;99.90
2855;DHT22;1435;49.472;10.940;2024-01-10T19:33:30;-0.60;99.90
2855;DHT22;1435;49.472;10.940;2024-01-10T19:38:33;-0.60;99.90
2855;DHT22;1435;49.472;10.940;2024-01-10T19:43:35;-0.60;99.90
2855;DHT22;1435;49.472;10.940;2024-01-10T19:48:37;-0.70;99.90
2855;DHT22;1435;49.472;10.940;2024-01-10T19:53:40;-0.80;99.90
2855;DHT22;1435;49.472;10.940;2024-01-10T19:58:48;-0.90;99.90
2855;DHT22;1435;49.472;10.940;2024-01-10T20:03:49;-0.90;99.90
2855;DHT22;1435;49.472;10.940;2024-01-10T20:08:52;-1.00;99.90
2855;DHT22;1435;49.472;10.940;2024-01-10T20:13:54;-1.10;99.90
2855;DHT22;1435;49.472;10.940;2024-01-10T20:18:56;-1.10;99.90
2855;DHT22;1435;49.472;10.940;2024-01-10T20:24:00;-1.20;99.90
2855;DHT22;1435;49.472;10.940;2024-01-10T20:29:02;-1.20;99.90
2855;DHT22;1435;49.472;10.940;2024-01-10T20:34:03;-1.20;99.90
2855;DHT22;1435;49.472;10.940;2024-01-10T20:39:06;-1.30;99.90
2855;DHT22;1435;49.472;10.940;2024-01-10T20:44:08;-1.30;99.90
2855;DHT22;1435;49.472;10.940;2024-01-10T20:49:10;-1.40;99.90
2855;DHT22;1435;49.472;10.940;2024-01-10T20:54:12;-1.40;99.90
2855;DHT22;1435;49.472;10.940;2024-01-10T20:59:14;-1.40;99.90
2855;DHT22;1435;49.472;10.940;2024-01-10T21:04:16;-1.40;99.90
2855;DHT22;1435;49.472;10.940;2024-01-10T21:09:19;-1.40;99.90
2855;DHT22;1435;49.472;10.940;2024-01-10T21:14:20;-1.40;99.90
2855;DHT22;1435;49.472;10.940;2024-01-10T21:19:22;-1.50;99.90
2855;DHT22;1435;49.472;10.940;2024-01-10T21:24:27;-1.50;99.90
2855;DHT22;1435;49.472;10.940;2024-01-10T21:29:29;-1.50;99.90
2855;DHT22;1435;49.472;10.940;2024-01-10T21:34:30;-1.60;99.90
2855;DHT22;1435;49.472;10.940;2024-01-10T21:39:33;-1.60;99.90
2855;DHT22;1435;49.472;10.940;2024-01-10T21:44:35;-1.60;99.90
2855;DHT22;1435;49.472;10.940;2024-01-10T21:49:37;-1.70;99.90
2855;DHT22;1435;49.472;10.940;2024-01-10T21:54:41;-1.70;99.90
2855;DHT22;1435;49.472;10.940;2024-01-10T21:59:43;-1.70;99.90
2855;DHT22;1435;49.472;10.940;2024-01-10T22:04:44;-1.80;99.90
2855;DHT22;1435;49.472;10.940;2024-01-10T22:09:47;-1.80;99.90
2855;DHT22;1435;49.472;10.940;2024-01-10T22:14:49;-1.80;99.90
2855;DHT22;1435;49.472;10.940;2024-01-10T22:19:50;-1.70;99.90
2855;DHT22;1435;49.472;10.940;2024-01-10T22:24:54;-1.80;99.90
2855;DHT22;1435;49.472;10.940;2024-01-10T22:29:55;-1.80;99.90
2855;DHT22;1435;49.472;10.940;2024-01-10T22:34:57;-1.80;99.90
2855;DHT22;1435;49.472;10.940;2024-01-10T22:40:00;-1.90;99.90
2855;DHT22;1435;49.472;10.940;2024-01-10T22:45:02;-1.90;99.90
2855;DHT22;1435;49.472;10.940;2024-01-10T22:50:05;-2.00;99.90
2855;DHT22;1435;49.472;10.940;2024-01-10T22:55:09;-2.00;99.90
2855;DHT22;1435;49.472;10.940;2024-01-10T23:00:11;-2.00;99.90
2855;DHT22;1435;49.472;10.940;2024-01-10T23:05:14;-2.00;99.90
2855;DHT22;1435;49.472;10.940;2024-01-10T23:10:17;-2.00;99.90
2855;DHT22;1435;49.472;10.940;2024-01-10T23:15:19;-2.00;99.90
2855;DHT22;1435;49.472;10.940;2024-01-10T23:20:23;-2.00;99.90
2855;DHT22;1435;49.472;10.940;2024-01-10T23:25:26;-2.10;99.90
2855;DHT22;1435;49.472;10.940;2024-01-10T23:30:29;-2.10;99.90
2855;DHT22;1435;49.472;10.940;2024-01-10T23:35:30;-2.20;99.90
2855;DHT22;1435;49.472;10.940;2024-01-10T23:40:33;-2.20;99.90
2855;DHT22;1435;49.472;10.940;2024-01-10T23:45:35;-2.20;99.90
2855;DHT22;1435;49.472;10.940;2024-01-10T23:50:37;-2.20;99.90
2855;DHT22;1435;49.472;10.940;2024-01-10T23:55:41;-2.20;99.90
